Memphis International Airport
KMEM : now visible

Airfield :











YOU CAN JOIN US ON...

 
LOGIN :

Register | Disclaimer

   EN    FR    IT 

 









Legend :    VFR   Marginal VFR   IFR   Intensive IFR   Very Intensive IFR
Visi :
Ceiling :
>= 8 km
>= 3000ft
5 to 8 km
1000 to 3000 ft
1500m to 5 km
500 to 1000 ft
800 to 1500m
200 to 500 ft
< 800m
< 200 ft
Symbols :   Thunderstorms  Fog  Heavy snow  Heavy precipitations  Wind > 20 kt






- Airport Elevation : 341 ft
- IATA code : MEM


KMEM - Memphis International

CURRENT METAR :
  • 300354Z 28005KT 10SM OVC080 06/04 A2996 RMK AO2 SLP145 T00560044 $

EXPIRED METARs :
  • 300254Z 29006KT 10SM SCT070 OVC110 06/04 A2995 RMK AO2 SLP143 60001 T00560039 50009 $
  • 300154Z 35005KT 10SM FEW042 OVC060 06/04 A2996 RMK AO2 RAE42 SLP146 P0000 T00560039 $
  • 300124Z 32007KT 10SM -RA FEW008 SCT042 OVC060 05/04 A2997 RMK AO2 P0000 T00500039 $

TAF KMEM
Valid from the 30 at 03:00 until the 01 at 06:00 UTC


300300Z 3003/0106 29007KT P6SM BKN060 OVC100
FM300600 32014G24KT P6SM BKN035 OVC120
FM301300 33012G23KT P6SM SCT040
FM302200 32010KT P6SM SKC
FM010300 30005KT P6SM SKC
KZME FIR / North America



MET'MAP, your aeronautical weather chart ! - Copyright ORBIFLY December 2007 - Disclaimer

ORBIFLY MET'MAP TEAM :

Programming & Development : Alexandra Zaïnal
Concept & original design : Baudouin d'Aumeries
Assistance for programming : Marc-Olivier Méhu
Technical & hardware support : Manuel Goepfert

Contact : metmap@orbifly.com




SOURCES & CREDITS :

   NOAA       Earth
Advisory